Terminal Aerodrome Forecast
Issued by NWS

Home | Current Version | Previous Version | Text Only | Print | Product List | Glossary On
Versions: 1 2 3 4 5 6 7 8 9 10 11 12
884
FTUS42 KMLB 210539
TAFSUA
TAF
KSUA 210539Z 2106/2206 23003KT P6SM SCT250
     FM211400 20008KT P6SM FEW020 SCT250
     FM211800 18012KT P6SM SCT035 BKN250
     FM220000 21006KT P6SM BKN250=

USA.gov is the U.S. government's official web portal to all federal, state and local government web resources and services.